Time;durP1;ratioP1;P1;durP2;ratioP2;P2;SDS_P1;SDS_P2;PMS_P1;PMS_P2;Temp;Humidity;BMP_temperature;BMP_pressure;BME280_temperature;BME280_humidity;BME280_pressure;Samples;Min_cycle;Max_cycle;Signal;HPM_P1;HPM_P2
2022/07/07 00:00:09;;;;;;;11.80;8.27;;;;;;;;;;5065143;28;20045;-70
2022/07/07 00:02:36;;;;;;;13.75;8.07;;;;;;;;;;5072811;28;20059;-71
2022/07/07 00:05:02;;;;;;;14.35;7.43;;;;;;;;;;5071116;28;20044;-70
2022/07/07 00:07:29;;;;;;;9.77;6.63;;;;;;;;;;5079268;28;20179;-71
2022/07/07 00:09:55;;;;;;;10.93;6.65;;;;;;;;;;5083507;28;20155;-70
2022/07/07 00:12:22;;;;;;;11.95;6.97;;;;;;;;;;5085305;28;20047;-71
2022/07/07 00:14:48;;;;;;;12.77;6.87;;;;;;;;;;5080225;28;20063;-71
2022/07/07 00:17:14;;;;;;;10.27;7.25;;;;;;;;;;5071905;28;20052;-70
2022/07/07 00:19:40;;;;;;;13.75;6.35;;;;;;;;;;5087114;28;20103;-70
2022/07/07 00:22:06;;;;;;;9.63;6.47;;;;;;;;;;5071153;28;20048;-70
2022/07/07 00:24:32;;;;;;;13.38;6.00;;;;;;;;;;5076613;28;20475;-70
2022/07/07 00:26:58;;;;;;;9.75;6.00;;;;;;;;;;5091138;28;20138;-70
2022/07/07 00:29:24;;;;;;;10.38;5.95;;;;;;;;;;5088908;28;20041;-70
2022/07/07 00:31:51;;;;;;;13.45;5.70;;;;;;;;;;5064547;28;20078;-71
2022/07/07 00:34:17;;;;;;;11.45;6.15;;;;;;;;;;5080418;28;20157;-71
2022/07/07 00:36:43;;;;;;;14.20;5.85;;;;;;;;;;5076027;28;20052;-72
2022/07/07 00:39:09;;;;;;;13.68;7.50;;;;;;;;;;5101152;28;20056;-74
2022/07/07 00:41:35;;;;;;;13.05;7.25;;;;;;;;;;5065049;28;20049;-73
2022/07/07 00:44:01;;;;;;;16.88;7.45;;;;;;;;;;5064991;28;20048;-73
2022/07/07 00:46:35;;;;;;;15.70;7.65;;;;;;;;;;5071609;28;20041;-70
2022/07/07 00:49:01;;;;;;;10.70;7.07;;;;;;;;;;5068537;28;20114;-70
2022/07/07 00:51:27;;;;;;;9.30;6.03;;;;;;;;;;5081530;28;20048;-71
2022/07/07 00:53:53;;;;;;;7.78;5.03;;;;;;;;;;5064878;28;20083;-69
2022/07/07 00:56:19;;;;;;;6.63;4.47;;;;;;;;;;5064903;28;20093;-69
2022/07/07 00:58:45;;;;;;;7.25;4.07;;;;;;;;;;5068566;28;20048;-69
2022/07/07 01:01:11;;;;;;;9.40;4.75;;;;;;;;;;5064594;28;20405;-69
2022/07/07 01:03:38;;;;;;;10.18;5.03;;;;;;;;;;5071593;28;20127;-69
2022/07/07 01:06:04;;;;;;;11.93;5.07;;;;;;;;;;5092228;28;20048;-69
2022/07/07 01:08:30;;;;;;;11.13;5.28;;;;;;;;;;5092080;28;20050;-69
2022/07/07 01:10:56;;;;;;;14.02;5.60;;;;;;;;;;5078736;28;20112;-68
2022/07/07 01:13:22;;;;;;;12.25;5.43;;;;;;;;;;5063420;28;20047;-68
2022/07/07 01:15:48;;;;;;;12.80;5.57;;;;;;;;;;5079515;28;20059;-68
2022/07/07 01:18:15;;;;;;;11.85;5.88;;;;;;;;;;5081167;28;20039;-68
2022/07/07 01:20:42;;;;;;;11.73;6.25;;;;;;;;;;5098780;28;20051;-68
2022/07/07 01:23:09;;;;;;;14.32;6.00;;;;;;;;;;5084414;28;20434;-68
2022/07/07 01:25:35;;;;;;;10.55;5.15;;;;;;;;;;5086005;28;20061;-68
2022/07/07 01:28:01;;;;;;;9.13;6.13;;;;;;;;;;5064458;28;20037;-68
2022/07/07 01:30:27;;;;;;;14.05;7.80;;;;;;;;;;5089262;28;20048;-68
2022/07/07 01:32:53;;;;;;;16.85;6.88;;;;;;;;;;5071151;28;20075;-68
2022/07/07 01:35:19;;;;;;;14.88;7.60;;;;;;;;;;5087327;28;20048;-68
2022/07/07 01:37:45;;;;;;;15.48;6.82;;;;;;;;;;5090857;28;20084;-68
2022/07/07 01:40:11;;;;;;;13.88;6.15;;;;;;;;;;5064506;28;20041;-68
2022/07/07 01:42:37;;;;;;;11.35;6.10;;;;;;;;;;5064090;28;20045;-70
2022/07/07 01:45:04;;;;;;;12.77;5.38;;;;;;;;;;5075989;28;20036;-69
2022/07/07 01:47:31;;;;;;;19.75;6.68;;;;;;;;;;5086673;28;20056;-69
2022/07/07 01:49:57;;;;;;;18.23;8.70;;;;;;;;;;5072018;28;20149;-69
2022/07/07 01:52:23;;;;;;;16.95;7.53;;;;;;;;;;5080676;28;20508;-69
2022/07/07 01:54:49;;;;;;;26.23;7.97;;;;;;;;;;5078698;28;20037;-69
2022/07/07 01:57:16;;;;;;;13.82;7.30;;;;;;;;;;5079734;28;20052;-69
2022/07/07 01:59:42;;;;;;;15.77;7.32;;;;;;;;;;5078038;28;20532;-69
2022/07/07 02:02:08;;;;;;;14.13;7.03;;;;;;;;;;5067791;28;20110;-69
2022/07/07 02:04:35;;;;;;;18.27;6.57;;;;;;;;;;5090826;28;20054;-69
2022/07/07 02:07:01;;;;;;;16.45;6.32;;;;;;;;;;5069823;28;20068;-69
2022/07/07 02:09:27;;;;;;;17.52;7.10;;;;;;;;;;5064139;28;20049;-68
2022/07/07 02:11:53;;;;;;;12.35;5.60;;;;;;;;;;5063627;28;20498;-69
2022/07/07 02:14:19;;;;;;;11.27;5.97;;;;;;;;;;5099316;28;20044;-69
2022/07/07 02:16:45;;;;;;;14.45;5.85;;;;;;;;;;5069732;28;20048;-69
2022/07/07 02:19:11;;;;;;;18.65;5.82;;;;;;;;;;5080085;28;20045;-69
2022/07/07 02:21:37;;;;;;;12.60;4.70;;;;;;;;;;5071234;28;20053;-69
2022/07/07 02:24:04;;;;;;;10.95;5.03;;;;;;;;;;5095181;28;20037;-70
2022/07/07 02:26:33;;;;;;;13.57;4.10;;;;;;;;;;5082915;28;20135;-69
2022/07/07 02:29:00;;;;;;;15.48;4.82;;;;;;;;;;5081792;28;20037;-70
2022/07/07 02:31:26;;;;;;;16.63;4.15;;;;;;;;;;5092385;28;20044;-69
2022/07/07 02:33:52;;;;;;;9.88;3.90;;;;;;;;;;5094745;28;20048;-70
2022/07/07 02:36:19;;;;;;;13.65;5.72;;;;;;;;;;5087372;28;20108;-69
2022/07/07 02:38:46;;;;;;;18.70;5.32;;;;;;;;;;5086173;28;20052;-69
2022/07/07 02:41:12;;;;;;;19.45;4.88;;;;;;;;;;5080861;28;20064;-69
2022/07/07 02:43:38;;;;;;;18.80;5.03;;;;;;;;;;5106658;28;20549;-69
2022/07/07 02:46:05;;;;;;;16.95;4.53;;;;;;;;;;5082053;28;20052;-69
2022/07/07 02:48:31;;;;;;;16.20;4.47;;;;;;;;;;5082562;28;20045;-69
2022/07/07 02:50:57;;;;;;;18.85;4.00;;;;;;;;;;5076529;28;20054;-68
2022/07/07 02:53:24;;;;;;;10.32;3.25;;;;;;;;;;5106312;28;20122;-68
2022/07/07 02:55:50;;;;;;;20.55;4.53;;;;;;;;;;5067320;28;20115;-68
2022/07/07 02:58:19;;;;;;;16.60;4.30;;;;;;;;;;5082517;28;20049;-68
2022/07/07 03:00:46;;;;;;;13.43;3.67;;;;;;;;;;5067087;28;20051;-68
2022/07/07 03:03:12;;;;;;;14.07;3.58;;;;;;;;;;5082275;28;20032;-68
2022/07/07 03:05:38;;;;;;;24.00;4.95;;;;;;;;;;5068690;28;20080;-69
2022/07/07 03:08:04;;;;;;;18.88;3.88;;;;;;;;;;5092272;28;20128;-68
2022/07/07 03:10:30;;;;;;;17.23;4.60;;;;;;;;;;5070789;28;20045;-68
2022/07/07 03:12:56;;;;;;;29.08;5.07;;;;;;;;;;5080345;28;20101;-69
2022/07/07 03:15:22;;;;;;;14.70;4.63;;;;;;;;;;5087038;28;20063;-71
2022/07/07 03:17:49;;;;;;;19.65;5.03;;;;;;;;;;5064991;28;20044;-72
2022/07/07 03:20:16;;;;;;;15.87;5.17;;;;;;;;;;5066748;28;20045;-71
2022/07/07 03:22:43;;;;;;;21.48;4.32;;;;;;;;;;5090131;28;20044;-71
2022/07/07 03:25:09;;;;;;;17.98;3.85;;;;;;;;;;5085863;28;20059;-72
2022/07/07 03:27:36;;;;;;;18.08;3.22;;;;;;;;;;5081926;28;20492;-70
2022/07/07 03:30:03;;;;;;;13.40;3.33;;;;;;;;;;5070992;28;20056;-71
2022/07/07 03:32:29;;;;;;;15.95;2.17;;;;;;;;;;5076099;28;20048;-71
2022/07/07 03:34:55;;;;;;;13.77;1.67;;;;;;;;;;5093501;28;20120;-71
2022/07/07 03:37:21;;;;;;;10.75;1.90;;;;;;;;;;5081789;28;20044;-70
2022/07/07 03:39:48;;;;;;;16.90;2.30;;;;;;;;;;5081834;28;20051;-70
2022/07/07 03:42:14;;;;;;;14.32;1.92;;;;;;;;;;5089479;28;20066;-70
2022/07/07 03:44:40;;;;;;;15.15;2.47;;;;;;;;;;5073006;28;20120;-70
2022/07/07 03:47:06;;;;;;;15.68;2.30;;;;;;;;;;5065597;28;20067;-69
2022/07/07 03:49:32;;;;;;;12.40;1.98;;;;;;;;;;5081436;28;20058;-69
2022/07/07 03:51:58;;;;;;;10.10;1.55;;;;;;;;;;5066017;28;20045;-69
2022/07/07 03:54:25;;;;;;;7.75;1.75;;;;;;;;;;5091304;28;20080;-70
2022/07/07 03:56:52;;;;;;;8.25;1.15;;;;;;;;;;5065549;28;20045;-70
2022/07/07 03:59:18;;;;;;;10.18;1.63;;;;;;;;;;5080513;28;20136;-70
2022/07/07 04:01:47;;;;;;;5.90;1.05;;;;;;;;;;5080746;28;20055;-70
2022/07/07 04:04:14;;;;;;;17.83;2.65;;;;;;;;;;5082544;28;20044;-69
2022/07/07 04:06:41;;;;;;;8.40;1.58;;;;;;;;;;5090618;28;20040;-69
2022/07/07 04:09:07;;;;;;;11.98;1.80;;;;;;;;;;5078446;28;20048;-69
2022/07/07 04:11:33;;;;;;;12.88;2.28;;;;;;;;;;5097644;28;20052;-69
2022/07/07 04:13:59;;;;;;;9.40;1.90;;;;;;;;;;5080337;28;20101;-69
2022/07/07 04:16:27;;;;;;;11.35;1.63;;;;;;;;;;5079559;28;20408;-69
2022/07/07 04:18:53;;;;;;;6.60;1.30;;;;;;;;;;5079327;28;20056;-69
2022/07/07 04:21:19;;;;;;;15.35;1.85;;;;;;;;;;5085703;28;20048;-69
2022/07/07 04:23:45;;;;;;;13.75;1.52;;;;;;;;;;5074307;28;20045;-69
2022/07/07 04:26:11;;;;;;;11.63;2.42;;;;;;;;;;5066531;28;20130;-69
2022/07/07 04:28:38;;;;;;;22.15;3.15;;;;;;;;;;5076792;28;20076;-68
2022/07/07 04:31:04;;;;;;;9.07;2.85;;;;;;;;;;5084868;28;20045;-68
2022/07/07 04:33:30;;;;;;;17.83;2.70;;;;;;;;;;5076683;28;20581;-68
2022/07/07 04:35:56;;;;;;;9.32;2.08;;;;;;;;;;5088001;28;20045;-68
2022/07/07 04:38:22;;;;;;;14.20;2.45;;;;;;;;;;5075321;28;20096;-68
2022/07/07 04:40:48;;;;;;;13.50;2.13;;;;;;;;;;5081714;28;20075;-68
2022/07/07 04:43:14;;;;;;;9.70;1.73;;;;;;;;;;5079050;28;20045;-68
2022/07/07 04:45:40;;;;;;;11.60;1.67;;;;;;;;;;5081360;28;20083;-69
2022/07/07 04:48:06;;;;;;;9.20;1.83;;;;;;;;;;5064150;28;20100;-68
2022/07/07 04:50:32;;;;;;;12.52;1.63;;;;;;;;;;5088994;28;20138;-68
2022/07/07 04:52:59;;;;;;;10.70;2.20;;;;;;;;;;5084742;28;20048;-68
2022/07/07 04:55:25;;;;;;;10.00;3.05;;;;;;;;;;5078419;28;20100;-68
2022/07/07 04:57:51;;;;;;;13.23;2.15;;;;;;;;;;5087753;28;20052;-68
2022/07/07 05:00:17;;;;;;;7.93;2.33;;;;;;;;;;5093886;28;20037;-68
2022/07/07 05:02:44;;;;;;;10.95;2.00;;;;;;;;;;5064039;28;20059;-68
2022/07/07 05:05:10;;;;;;;17.95;2.67;;;;;;;;;;5064476;28;20061;-68
2022/07/07 05:07:36;;;;;;;19.42;2.65;;;;;;;;;;5064545;28;20355;-68
2022/07/07 05:10:02;;;;;;;17.92;2.95;;;;;;;;;;5096530;28;20099;-68
2022/07/07 05:12:28;;;;;;;15.18;2.40;;;;;;;;;;5068291;28;20044;-68
2022/07/07 05:14:54;;;;;;;16.45;2.67;;;;;;;;;;5087266;28;20053;-67
2022/07/07 05:17:20;;;;;;;13.52;2.63;;;;;;;;;;5063940;28;20045;-67
2022/07/07 05:19:46;;;;;;;14.10;3.38;;;;;;;;;;5092426;28;20040;-67
2022/07/07 05:22:13;;;;;;;16.30;2.53;;;;;;;;;;5081810;28;20052;-68
2022/07/07 05:24:39;;;;;;;14.75;3.03;;;;;;;;;;5073817;28;20138;-68
2022/07/07 05:27:05;;;;;;;8.88;2.45;;;;;;;;;;5069025;28;20055;-68
2022/07/07 05:29:31;;;;;;;14.90;2.37;;;;;;;;;;5071871;28;20063;-68
2022/07/07 05:31:58;;;;;;;11.80;2.08;;;;;;;;;;5083029;28;20044;-69
2022/07/07 05:34:24;;;;;;;10.73;2.08;;;;;;;;;;5078773;28;20049;-68
2022/07/07 05:36:50;;;;;;;12.10;2.58;;;;;;;;;;5065652;28;20063;-69
2022/07/07 05:39:16;;;;;;;12.13;2.45;;;;;;;;;;5083397;28;20082;-69
2022/07/07 05:41:42;;;;;;;22.48;2.60;;;;;;;;;;5096884;28;20036;-69
2022/07/07 05:44:09;;;;;;;8.48;2.30;;;;;;;;;;5079782;28;20096;-69
2022/07/07 05:46:35;;;;;;;16.20;2.50;;;;;;;;;;5079349;28;20396;-69
2022/07/07 05:49:02;;;;;;;11.98;2.35;;;;;;;;;;5074551;28;20049;-70
2022/07/07 05:51:28;;;;;;;9.73;2.23;;;;;;;;;;5084087;28;20040;-70
2022/07/07 05:53:54;;;;;;;9.88;2.28;;;;;;;;;;5083975;28;20079;-70
2022/07/07 05:56:20;;;;;;;8.05;1.75;;;;;;;;;;5084164;28;20056;-71
2022/07/07 05:58:46;;;;;;;12.70;2.80;;;;;;;;;;5079818;28;20036;-71
2022/07/07 06:01:13;;;;;;;10.98;2.17;;;;;;;;;;5089796;28;20064;-71
2022/07/07 06:03:39;;;;;;;10.40;2.10;;;;;;;;;;5085933;28;20044;-71
2022/07/07 06:06:05;;;;;;;10.80;1.98;;;;;;;;;;5085777;28;20112;-71
2022/07/07 06:08:31;;;;;;;11.05;1.75;;;;;;;;;;5084726;28;20112;-71
2022/07/07 06:10:58;;;;;;;13.52;2.80;;;;;;;;;;5091158;28;20477;-71
2022/07/07 06:13:24;;;;;;;12.80;2.10;;;;;;;;;;5087461;28;20048;-71
2022/07/07 06:15:50;;;;;;;7.22;2.00;;;;;;;;;;5090272;28;20083;-71
2022/07/07 06:18:16;;;;;;;11.63;2.55;;;;;;;;;;5079284;28;20049;-71
2022/07/07 06:20:42;;;;;;;6.07;1.63;;;;;;;;;;5085257;28;20123;-71
2022/07/07 06:23:09;;;;;;;7.57;2.10;;;;;;;;;;5071426;28;20077;-71
2022/07/07 06:25:36;;;;;;;9.25;1.60;;;;;;;;;;5100441;28;20100;-71
2022/07/07 06:28:02;;;;;;;18.30;2.53;;;;;;;;;;5088004;28;20482;-71
2022/07/07 06:30:28;;;;;;;7.13;1.52;;;;;;;;;;5089024;28;20053;-71
2022/07/07 06:32:54;;;;;;;10.18;2.38;;;;;;;;;;5074444;28;20132;-71
2022/07/07 06:35:21;;;;;;;6.72;1.33;;;;;;;;;;5091888;28;20049;-71
2022/07/07 06:37:47;;;;;;;11.35;1.75;;;;;;;;;;5086603;28;20044;-72
2022/07/07 06:40:13;;;;;;;7.82;1.77;;;;;;;;;;5105050;28;20050;-71
2022/07/07 06:42:40;;;;;;;5.88;1.58;;;;;;;;;;5088450;28;20467;-71
2022/07/07 06:45:07;;;;;;;6.35;1.25;;;;;;;;;;5102657;28;20056;-71
2022/07/07 06:47:34;;;;;;;9.63;1.65;;;;;;;;;;5077200;28;20052;-71
2022/07/07 06:50:00;;;;;;;6.50;1.40;;;;;;;;;;5090033;28;20068;-71
2022/07/07 06:52:26;;;;;;;4.43;0.90;;;;;;;;;;5086607;28;20309;-72
2022/07/07 06:54:52;;;;;;;2.97;0.88;;;;;;;;;;5087004;28;20048;-72
2022/07/07 06:57:18;;;;;;;4.53;1.33;;;;;;;;;;5086895;28;20060;-71
2022/07/07 06:59:44;;;;;;;7.72;1.65;;;;;;;;;;5084029;28;20036;-72
2022/07/07 07:02:11;;;;;;;5.97;0.88;;;;;;;;;;5086359;28;20599;-70
2022/07/07 07:04:37;;;;;;;10.27;1.42;;;;;;;;;;5086582;28;20051;-71
2022/07/07 07:07:04;;;;;;;3.95;1.33;;;;;;;;;;5079611;28;20140;-71
2022/07/07 07:09:30;;;;;;;4.05;0.85;;;;;;;;;;5112167;28;20493;-74
2022/07/07 07:11:57;;;;;;;7.55;1.42;;;;;;;;;;5086732;28;20072;-68
2022/07/07 07:14:23;;;;;;;6.63;1.17;;;;;;;;;;5081582;28;20293;-68
2022/07/07 07:16:49;;;;;;;6.60;1.40;;;;;;;;;;5086136;28;20049;-68
2022/07/07 07:19:15;;;;;;;6.75;1.20;;;;;;;;;;5085095;28;20140;-68
2022/07/07 07:21:41;;;;;;;5.43;0.63;;;;;;;;;;5086447;28;20135;-67
2022/07/07 07:24:07;;;;;;;1.65;0.60;;;;;;;;;;5086577;28;20066;-67
2022/07/07 07:26:34;;;;;;;4.82;1.13;;;;;;;;;;5087438;28;20048;-67
2022/07/07 07:29:00;;;;;;;2.63;0.80;;;;;;;;;;5087833;28;20041;-67
2022/07/07 07:31:26;;;;;;;11.25;1.40;;;;;;;;;;5084937;28;20041;-67
2022/07/07 07:33:52;;;;;;;9.23;1.15;;;;;;;;;;5085661;28;20052;-67
2022/07/07 07:36:18;;;;;;;6.88;1.13;;;;;;;;;;5086010;28;20040;-67
2022/07/07 07:38:44;;;;;;;9.20;2.45;;;;;;;;;;5082937;28;20209;-67
2022/07/07 07:41:11;;;;;;;5.38;1.00;;;;;;;;;;5073591;28;20044;-67
2022/07/07 07:43:37;;;;;;;4.43;0.90;;;;;;;;;;5093822;28;20052;-67
2022/07/07 07:46:04;;;;;;;3.28;0.60;;;;;;;;;;5086968;28;20132;-67
2022/07/07 07:48:30;;;;;;;2.65;0.50;;;;;;;;;;5084951;28;20132;-67
2022/07/07 07:50:56;;;;;;;5.68;0.80;;;;;;;;;;5086436;28;20048;-68
2022/07/07 07:53:22;;;;;;;3.72;0.70;;;;;;;;;;5080404;28;20068;-67
2022/07/07 07:55:50;;;;;;;3.63;1.00;;;;;;;;;;5079979;28;20040;-67
2022/07/07 07:58:16;;;;;;;;;;;;;;;;;;5085504;28;20083;-67
2022/07/07 08:00:42;;;;;;;5.93;1.38;;;;;;;;;;5116976;28;19983;-67
2022/07/07 08:03:08;;;;;;;6.45;1.33;;;;;;;;;;5084718;28;20052;-67
2022/07/07 08:05:35;;;;;;;5.53;1.67;;;;;;;;;;5080810;28;20052;-67
2022/07/07 08:08:01;;;;;;;4.55;0.73;;;;;;;;;;5083490;28;20051;-67
2022/07/07 08:10:27;;;;;;;6.30;1.55;;;;;;;;;;5083352;28;20045;-67
2022/07/07 08:12:53;;;;;;;8.07;1.77;;;;;;;;;;5085045;28;20584;-66
2022/07/07 08:15:20;;;;;;;5.90;0.98;;;;;;;;;;5084466;28;20048;-67
2022/07/07 08:17:48;;;;;;;7.22;1.30;;;;;;;;;;5083506;28;20104;-66
2022/07/07 08:20:15;;;;;;;6.63;1.10;;;;;;;;;;5084783;28;20055;-66
2022/07/07 08:22:41;;;;;;;6.90;1.30;;;;;;;;;;5084574;28;20050;-66
2022/07/07 08:25:07;;;;;;;4.60;1.25;;;;;;;;;;5083506;28;20040;-65
2022/07/07 08:27:33;;;;;;;5.85;1.48;;;;;;;;;;5077041;28;20131;-66
2022/07/07 08:30:00;;;;;;;7.40;1.60;;;;;;;;;;5084729;28;20066;-66
2022/07/07 08:32:26;;;;;;;7.93;1.38;;;;;;;;;;5083894;28;20054;-66
2022/07/07 08:34:52;;;;;;;8.05;1.77;;;;;;;;;;5077913;28;20127;-66
2022/07/07 08:37:18;;;;;;;10.18;1.90;;;;;;;;;;5073219;28;20044;-66
2022/07/07 08:39:44;;;;;;;11.68;1.50;;;;;;;;;;5084836;28;20052;-66
2022/07/07 08:42:11;;;;;;;8.18;1.58;;;;;;;;;;5087349;28;20052;-66
2022/07/07 08:44:37;;;;;;;9.73;1.80;;;;;;;;;;5088450;28;20096;-66
2022/07/07 08:47:03;;;;;;;8.48;2.22;;;;;;;;;;5084026;28;20079;-66
2022/07/07 08:49:30;;;;;;;9.32;2.03;;;;;;;;;;5073870;28;20104;-66
2022/07/07 08:51:57;;;;;;;8.63;1.92;;;;;;;;;;5099341;28;20108;-66
2022/07/07 08:54:25;;;;;;;8.30;2.05;;;;;;;;;;5088268;28;20052;-66
2022/07/07 08:56:51;;;;;;;;;;;;;;;;;;5077151;28;20044;-66
2022/07/07 08:59:18;;;;;;;8.20;2.47;;;;;;;;;;5075987;28;20155;-66
2022/07/07 09:01:54;;;;;;;8.80;2.00;;;;;;;;;;5098584;28;20565;-66
2022/07/07 09:04:21;;;;;;;5.28;1.42;;;;;;;;;;5094518;28;20048;-66
2022/07/07 09:07:01;;;;;;;5.45;1.48;;;;;;;;;;5099593;28;20048;-66
2022/07/07 09:09:28;;;;;;;6.28;1.42;;;;;;;;;;5077942;28;20041;-66
2022/07/07 09:12:01;;;;;;;4.88;1.20;;;;;;;;;;5078366;28;20391;-66
2022/07/07 09:14:34;;;;;;;6.82;1.48;;;;;;;;;;5086332;28;20123;-66
2022/07/07 09:17:00;;;;;;;3.25;0.80;;;;;;;;;;5080860;28;20055;-66
2022/07/07 09:19:26;;;;;;;8.65;1.17;;;;;;;;;;5084006;28;20399;-66
2022/07/07 09:21:52;;;;;;;6.47;1.40;;;;;;;;;;5083809;28;20463;-66
2022/07/07 09:24:19;;;;;;;4.32;1.27;;;;;;;;;;5082752;28;20080;-66
2022/07/07 09:26:47;;;;;;;9.50;1.90;;;;;;;;;;5082618;28;20419;-66
2022/07/07 09:29:14;;;;;;;6.10;1.20;;;;;;;;;;5082673;28;20637;-66
2022/07/07 09:31:51;;;;;;;5.85;1.50;;;;;;;;;;5076778;28;20048;-66
2022/07/07 09:34:18;;;;;;;9.32;1.73;;;;;;;;;;5080275;28;20052;-66
2022/07/07 09:39:41;;;;;;;5.68;2.05;;;;;;;;;;5079047;28;20052;-66
2022/07/07 09:42:37;;;;;;;8.90;1.40;;;;;;;;;;5099321;28;20392;-66
2022/07/07 09:45:05;;;;;;;7.43;0.98;;;;;;;;;;5066033;28;20063;-66
2022/07/07 09:47:32;;;;;;;5.90;1.52;;;;;;;;;;5083534;28;20101;-66
2022/07/07 09:49:59;;;;;;;;;;;;;;;;;;5085186;28;20048;-66
2022/07/07 09:52:26;;;;;;;3.13;0.88;;;;;;;;;;5074998;28;19932;-65
2022/07/07 09:54:52;;;;;;;4.22;1.00;;;;;;;;;;5080268;28;20045;-66
2022/07/07 09:57:19;;;;;;;4.32;1.13;;;;;;;;;;5081135;28;20052;-66
2022/07/07 09:59:45;;;;;;;4.57;1.00;;;;;;;;;;5094635;28;20048;-66
2022/07/07 10:02:18;;;;;;;8.55;1.80;;;;;;;;;;5067546;28;20060;-66
2022/07/07 10:04:47;;;;;;;5.63;1.10;;;;;;;;;;5076802;28;20044;-66
2022/07/07 10:07:13;;;;;;;5.57;1.13;;;;;;;;;;5084646;28;20055;-66
2022/07/07 10:09:44;;;;;;;7.27;1.77;;;;;;;;;;5083748;28;20040;-67
2022/07/07 10:12:11;;;;;;;5.70;1.27;;;;;;;;;;5083477;28;20290;-67
2022/07/07 10:14:42;;;;;;;5.65;1.80;;;;;;;;;;5082020;28;20064;-67
2022/07/07 10:17:08;;;;;;;7.72;1.25;;;;;;;;;;5086031;28;20079;-67
2022/07/07 10:19:35;;;;;;;6.40;1.80;;;;;;;;;;5075500;28;20088;-67
2022/07/07 10:22:03;;;;;;;9.05;2.10;;;;;;;;;;5077256;28;20096;-67
2022/07/07 10:24:31;;;;;;;12.70;1.70;;;;;;;;;;5080345;28;20048;-67
2022/07/07 10:26:58;;;;;;;15.95;2.20;;;;;;;;;;5084380;28;20059;-67
2022/07/07 10:29:24;;;;;;;;;;;;;;;;;;5083752;28;20075;-67
2022/07/07 10:31:51;;;;;;;15.32;3.00;;;;;;;;;;5080492;28;19924;-67
2022/07/07 10:34:18;;;;;;;14.27;2.83;;;;;;;;;;5082162;28;20534;-66
2022/07/07 10:36:50;;;;;;;8.10;1.73;;;;;;;;;;5083309;28;20053;-67
2022/07/07 10:39:17;;;;;;;13.10;2.53;;;;;;;;;;5083360;28;20116;-66
2022/07/07 10:41:52;;;;;;;13.07;2.95;;;;;;;;;;5073093;28;20116;-66
2022/07/07 10:44:20;;;;;;;12.65;2.20;;;;;;;;;;5086014;28;20076;-67
2022/07/07 10:46:59;;;;;;;12.65;2.38;;;;;;;;;;5101867;28;20109;-67
2022/07/07 10:49:41;;;;;;;10.98;2.17;;;;;;;;;;5080976;28;20074;-67
2022/07/07 10:52:14;;;;;;;15.82;2.20;;;;;;;;;;5082438;28;20064;-67
2022/07/07 10:54:41;;;;;;;16.33;3.58;;;;;;;;;;5104748;28;20106;-67
2022/07/07 10:57:20;;;;;;;12.02;2.28;;;;;;;;;;5085520;28;20071;-68
2022/07/07 11:00:00;;;;;;;17.42;3.85;;;;;;;;;;5086451;28;20051;-67
2022/07/07 11:02:29;;;;;;;11.43;1.85;;;;;;;;;;5083669;28;20092;-67
2022/07/07 11:04:56;;;;;;;8.48;3.08;;;;;;;;;;5083807;28;20041;-67
2022/07/07 11:07:24;;;;;;;12.52;2.75;;;;;;;;;;5094245;28;20047;-67
2022/07/07 11:10:00;;;;;;;11.07;2.20;;;;;;;;;;5087373;28;20048;-67
2022/07/07 11:12:35;;;;;;;13.80;2.72;;;;;;;;;;5084146;28;20059;-68
2022/07/07 11:15:24;;;;;;;11.75;1.92;;;;;;;;;;5092370;28;20083;-68
2022/07/07 11:17:53;;;;;;;7.85;1.75;;;;;;;;;;5082250;28;20091;-68
2022/07/07 11:20:20;;;;;;;19.17;2.60;;;;;;;;;;5084779;28;20056;-68
2022/07/07 11:22:47;;;;;;;15.52;2.33;;;;;;;;;;5086070;28;20101;-68
2022/07/07 11:25:14;;;;;;;14.05;1.98;;;;;;;;;;5098666;28;20048;-68
2022/07/07 11:27:41;;;;;;;9.23;1.50;;;;;;;;;;5105753;28;20565;-68
2022/07/07 11:30:07;;;;;;;12.30;1.92;;;;;;;;;;5085096;28;20286;-68
2022/07/07 11:32:37;;;;;;;14.80;2.13;;;;;;;;;;5087362;28;20044;-68
2022/07/07 11:35:10;;;;;;;9.88;1.73;;;;;;;;;;5101574;28;20045;-69
2022/07/07 11:37:39;;;;;;;9.82;2.10;;;;;;;;;;5086557;28;20047;-67
2022/07/07 11:40:22;;;;;;;7.90;1.80;;;;;;;;;;5089127;28;20090;-68
2022/07/07 11:42:49;;;;;;;2.83;0.93;;;;;;;;;;5084911;28;20374;-68
2022/07/07 11:45:18;;;;;;;12.13;2.03;;;;;;;;;;5079474;28;20036;-68
2022/07/07 11:47:44;;;;;;;7.68;1.25;;;;;;;;;;5065616;28;20051;-68
2022/07/07 11:50:10;;;;;;;10.48;1.48;;;;;;;;;;5100002;28;20080;-68
2022/07/07 11:52:37;;;;;;;8.60;1.83;;;;;;;;;;5089826;28;20053;-68
2022/07/07 11:55:04;;;;;;;13.70;2.38;;;;;;;;;;5084988;28;20059;-68
2022/07/07 11:57:32;;;;;;;10.45;2.22;;;;;;;;;;5077492;28;20052;-68
2022/07/07 12:00:11;;;;;;;5.82;1.33;;;;;;;;;;5071688;28;20037;-67
2022/07/07 12:02:37;;;;;;;11.05;2.00;;;;;;;;;;5066362;28;20504;-67
2022/07/07 12:05:04;;;;;;;10.45;2.45;;;;;;;;;;5071299;28;20079;-71
2022/07/07 12:07:30;;;;;;;15.37;3.10;;;;;;;;;;5081835;28;20084;-75
2022/07/07 12:09:56;;;;;;;9.85;2.22;;;;;;;;;;5065648;28;20037;-68
2022/07/07 12:12:23;;;;;;;12.60;2.53;;;;;;;;;;5078279;28;20056;-74
2022/07/07 12:14:49;;;;;;;8.30;1.55;;;;;;;;;;5077967;28;20084;-73
2022/07/07 12:17:33;;;;;;;15.02;2.60;;;;;;;;;;5085876;28;20040;-73
2022/07/07 12:19:59;;;;;;;10.63;2.42;;;;;;;;;;5084795;28;20092;-74
2022/07/07 12:22:33;;;;;;;12.20;3.05;;;;;;;;;;5076501;28;20049;-73
2022/07/07 12:25:06;;;;;;;6.45;1.63;;;;;;;;;;5081041;28;20048;-72
2022/07/07 12:27:32;;;;;;;11.38;2.00;;;;;;;;;;5085604;28;20402;-73
2022/07/07 12:30:03;;;;;;;16.40;2.35;;;;;;;;;;5080834;28;20051;-73
2022/07/07 12:32:29;;;;;;;9.65;2.25;;;;;;;;;;5078946;28;20119;-72
2022/07/07 12:34:55;;;;;;;11.73;2.30;;;;;;;;;;5074325;28;20056;-74
2022/07/07 12:37:21;;;;;;;11.45;1.75;;;;;;;;;;5082849;28;20052;-74
2022/07/07 12:39:51;;;;;;;11.00;2.20;;;;;;;;;;5072051;28;20040;-72
2022/07/07 12:42:24;;;;;;;7.97;1.98;;;;;;;;;;5081700;28;20040;-72
2022/07/07 12:44:50;;;;;;;9.90;1.77;;;;;;;;;;5080991;28;20076;-72
2022/07/07 12:47:17;;;;;;;7.18;1.98;;;;;;;;;;5076515;28;20104;-72
2022/07/07 12:49:56;;;;;;;9.70;2.13;;;;;;;;;;5085537;28;20094;-71
2022/07/07 12:52:22;;;;;;;9.27;2.67;;;;;;;;;;5102314;28;20052;-72
2022/07/07 12:54:48;;;;;;;10.27;2.38;;;;;;;;;;5083367;28;20337;-72
2022/07/07 12:57:15;;;;;;;23.00;3.10;;;;;;;;;;5100095;28;20057;-72
2022/07/07 12:59:45;;;;;;;15.77;3.22;;;;;;;;;;5089116;28;20037;-72
2022/07/07 13:02:12;;;;;;;14.20;2.47;;;;;;;;;;5082788;28;20559;-72
2022/07/07 13:04:40;;;;;;;9.85;2.10;;;;;;;;;;5078504;28;20064;-71
2022/07/07 13:07:06;;;;;;;20.02;3.45;;;;;;;;;;5079905;28;20090;-72
2022/07/07 13:09:33;;;;;;;18.40;3.13;;;;;;;;;;5084305;28;20087;-72
2022/07/07 13:11:59;;;;;;;15.23;2.93;;;;;;;;;;5087627;28;20047;-73
2022/07/07 13:14:25;;;;;;;5.82;1.65;;;;;;;;;;5089555;28;20500;-73
2022/07/07 13:16:51;;;;;;;9.73;2.03;;;;;;;;;;5098989;28;20049;-73
2022/07/07 13:19:18;;;;;;;13.77;2.80;;;;;;;;;;5084021;28;20131;-73
2022/07/07 13:21:44;;;;;;;14.60;2.53;;;;;;;;;;5082246;28;20045;-72
2022/07/07 13:24:10;;;;;;;15.68;2.72;;;;;;;;;;5086341;28;20036;-71
2022/07/07 13:26:36;;;;;;;16.08;2.42;;;;;;;;;;5085464;28;20080;-72
2022/07/07 13:29:02;;;;;;;9.82;2.33;;;;;;;;;;5084581;28;20309;-71
2022/07/07 13:31:28;;;;;;;12.88;2.10;;;;;;;;;;5099645;28;20060;-72
2022/07/07 13:33:54;;;;;;;14.45;2.60;;;;;;;;;;5082372;28;20045;-72
2022/07/07 13:36:20;;;;;;;8.98;1.80;;;;;;;;;;5084389;28;20098;-72
2022/07/07 13:38:47;;;;;;;12.50;2.15;;;;;;;;;;5078917;28;20040;-73
2022/07/07 13:41:15;;;;;;;9.45;2.25;;;;;;;;;;5097634;28;20056;-72
2022/07/07 13:43:41;;;;;;;;;;;;;;;;;;5082924;28;20074;-73
2022/07/07 13:46:08;;;;;;;10.32;2.13;;;;;;;;;;5111658;28;19921;-73
2022/07/07 13:48:34;;;;;;;12.75;2.53;;;;;;;;;;5099135;28;20077;-72
2022/07/07 13:51:00;;;;;;;11.73;2.30;;;;;;;;;;5083854;28;20052;-72
2022/07/07 13:53:26;;;;;;;11.35;2.20;;;;;;;;;;5081798;28;20048;-73
2022/07/07 13:55:52;;;;;;;13.85;2.80;;;;;;;;;;5081012;28;20059;-67
2022/07/07 13:58:18;;;;;;;10.38;1.77;;;;;;;;;;5084990;28;20049;-67
2022/07/07 14:00:45;;;;;;;9.95;1.38;;;;;;;;;;5084059;28;20044;-67
2022/07/07 14:03:11;;;;;;;10.52;1.63;;;;;;;;;;5083325;28;20079;-67
2022/07/07 14:05:37;;;;;;;5.32;1.40;;;;;;;;;;5088036;28;20056;-67
2022/07/07 14:08:04;;;;;;;12.50;2.03;;;;;;;;;;5099778;28;20059;-68
2022/07/07 14:10:30;;;;;;;16.05;2.55;;;;;;;;;;5083881;28;20044;-68
2022/07/07 14:12:56;;;;;;;8.45;1.98;;;;;;;;;;5099652;28;20123;-67
2022/07/07 14:15:22;;;;;;;8.35;1.70;;;;;;;;;;5090038;28;20074;-68
2022/07/07 14:17:48;;;;;;;9.45;1.55;;;;;;;;;;5098879;28;20044;-68
2022/07/07 14:20:14;;;;;;;8.77;2.08;;;;;;;;;;5085776;28;20047;-68
2022/07/07 14:22:40;;;;;;;7.05;1.30;;;;;;;;;;5086577;28;20044;-67
2022/07/07 14:25:07;;;;;;;7.38;1.20;;;;;;;;;;5093923;28;20048;-67
2022/07/07 14:27:33;;;;;;;5.15;1.30;;;;;;;;;;5084265;28;20052;-67
2022/07/07 14:30:00;;;;;;;7.80;1.30;;;;;;;;;;5078707;28;20572;-67
2022/07/07 14:32:29;;;;;;;10.07;1.95;;;;;;;;;;5084053;28;20076;-67
2022/07/07 14:34:56;;;;;;;11.02;1.83;;;;;;;;;;5084985;28;20400;-67
2022/07/07 14:37:22;;;;;;;17.75;2.38;;;;;;;;;;5069519;28;20037;-67
2022/07/07 14:39:50;;;;;;;14.38;2.20;;;;;;;;;;5088447;28;20044;-66